Terminal Aerodrome Forecast
Issued by NWS Springfield, MO

Home | Current Version | Previous Version | Text Only | Print | Product List | Glossary On
Versions: 1 2 3 4 5 6 7 8 9 10 11 12 13 14 15 16 17 18 19 20 21 22
826
FTUS43 KSGF 221125
TAFSGF
TAF
KSGF 221125Z 2212/2312 15007KT P6SM BKN007
     FM221630 15007KT P6SM BKN015
     FM221800 16007KT P6SM BKN020
     FM222230 15006KT P6SM BKN050
     FM230700 17004KT P6SM BKN060
     FM230900 18004KT P6SM BKN030=

USA.gov is the U.S. government's official web portal to all federal, state and local government web resources and services.